createdAt,value
2023-04-13T00:04:01.333Z,7.02
2023-04-13T00:09:01.074Z,7
2023-04-13T00:14:01.135Z,7
2023-04-13T00:19:01.019Z,7
2023-04-13T00:24:01.023Z,7
2023-04-13T00:34:00.994Z,7
2023-04-13T00:39:00.991Z,7
2023-04-13T00:44:01.008Z,7
2023-04-13T00:49:00.981Z,7
2023-04-13T00:54:00.989Z,6.98
2023-04-13T00:59:01.000Z,6.96
2023-04-13T01:04:01.192Z,6.94
2023-04-13T01:09:00.966Z,6.93
2023-04-13T01:14:01.498Z,6.95
2023-04-13T01:19:00.985Z,6.93
2023-04-13T01:24:01.137Z,6.92
2023-04-13T01:29:00.962Z,6.9
2023-04-13T01:34:01.090Z,6.85
2023-04-13T01:39:00.981Z,6.78
2023-04-13T01:44:01.238Z,6.7
2023-04-13T01:49:00.971Z,6.6
2023-04-13T01:54:01.100Z,6.55
2023-04-13T01:59:00.937Z,6.5
2023-04-13T02:04:02.486Z,6.42
2023-04-13T02:09:00.927Z,6.36
2023-04-13T02:14:01.010Z,6.33
2023-04-13T02:19:00.907Z,6.32
2023-04-13T02:24:01.055Z,6.31
2023-04-13T02:29:00.894Z,6.28
2023-04-13T02:34:01.113Z,6.21
2023-04-13T02:39:00.908Z,6.16
2023-04-13T02:44:01.113Z,6.14
2023-04-13T02:49:00.985Z,6.09
2023-04-13T02:54:00.973Z,6.09
2023-04-13T02:59:00.879Z,6.05
2023-04-13T03:04:01.180Z,6.05
2023-04-13T03:09:00.912Z,5.94
2023-04-13T03:14:01.146Z,5.9
2023-04-13T03:19:00.994Z,5.88
2023-04-13T03:24:00.933Z,5.84
2023-04-13T03:29:00.856Z,5.75
2023-04-13T03:34:01.042Z,5.71
2023-04-13T03:39:00.847Z,5.63
2023-04-13T03:44:00.968Z,5.57
2023-04-13T03:49:00.853Z,5.46
2023-04-13T03:54:01.108Z,5.4
2023-04-13T03:59:00.827Z,5.33
2023-04-13T04:04:01.062Z,5.29
2023-04-13T04:09:00.834Z,5.19
2023-04-13T04:14:01.195Z,5.13
2023-04-13T04:19:00.838Z,5.11
2023-04-13T04:24:00.915Z,5.08
2023-04-13T04:29:00.840Z,5.05
2023-04-13T04:34:00.872Z,5.04
2023-04-13T04:39:00.814Z,5.02
2023-04-13T04:44:00.894Z,5.11
2023-04-13T04:49:00.966Z,5.16
2023-04-13T04:54:01.019Z,5.22
2023-04-13T04:59:00.865Z,5.31
2023-04-13T05:04:00.786Z,5.31
2023-04-13T05:09:00.891Z,5.34
2023-04-13T05:14:00.786Z,5.42
2023-04-13T05:19:00.833Z,5.46
2023-04-13T05:24:00.780Z,5.53
2023-04-13T05:29:01.193Z,5.48
2023-04-13T05:34:00.763Z,5.48
2023-04-13T05:39:00.812Z,5.48
2023-04-13T05:44:00.752Z,5.46
2023-04-13T05:49:00.904Z,5.55
2023-04-13T05:54:00.763Z,5.58
2023-04-13T05:59:00.960Z,5.59
2023-04-13T06:04:01.049Z,5.67
2023-04-13T06:09:00.956Z,5.69
2023-04-13T06:14:00.722Z,5.7
2023-04-13T06:19:00.906Z,5.7
2023-04-13T06:24:00.733Z,5.79
2023-04-13T06:29:00.946Z,5.9
2023-04-13T06:34:00.716Z,6.05
2023-04-13T06:39:00.947Z,6.21
2023-04-13T06:44:00.699Z,6.42
2023-04-13T06:49:00.815Z,6.6
2023-04-13T06:54:00.703Z,6.86
2023-04-13T06:59:02.228Z,6.98
2023-04-13T07:04:00.737Z,7.21
2023-04-13T07:09:00.939Z,7.55
2023-04-13T07:14:00.689Z,7.94
2023-04-13T07:19:00.957Z,8.25
2023-04-13T07:24:00.686Z,8.42
2023-04-13T07:29:00.782Z,8.56
2023-04-13T07:34:00.708Z,8.67
2023-04-13T07:39:00.837Z,8.77
2023-04-13T07:44:00.668Z,9.03
2023-04-13T07:49:01.027Z,8.92
2023-04-13T07:54:00.648Z,8.77
2023-04-13T07:59:00.901Z,8.83
2023-04-13T08:04:00.731Z,9.08
2023-04-13T08:09:00.789Z,9.33
2023-04-13T08:14:00.682Z,9.56
2023-04-13T08:19:00.879Z,9.49
2023-04-13T08:24:00.632Z,9.18
2023-04-13T08:29:01.236Z,9.27
2023-04-13T08:34:00.628Z,9.37
2023-04-13T08:39:00.886Z,9.86
2023-04-13T08:44:00.757Z,10.44
2023-04-13T08:49:00.605Z,10.42
2023-04-13T08:54:00.610Z,10.8
2023-04-13T08:59:00.789Z,10.8
2023-04-13T09:04:00.663Z,10.61
2023-04-13T09:09:00.761Z,10.35
2023-04-13T09:14:00.787Z,10.6
2023-04-13T09:19:00.789Z,10.73
2023-04-13T09:24:00.574Z,10.71
2023-04-13T09:29:00.639Z,10.88
2023-04-13T09:34:00.640Z,11.01
2023-04-13T09:39:00.685Z,11.34
2023-04-13T09:44:00.552Z,11.71
2023-04-13T09:49:00.788Z,11.49
2023-04-13T09:54:00.537Z,11.48
2023-04-13T12:44:00.356Z,11.31
2023-04-13T12:49:00.448Z,11.43
2023-04-13T12:54:00.344Z,11.35
2023-04-13T12:59:00.555Z,11.19
2023-04-13T13:04:00.425Z,11.02
2023-04-13T13:09:00.909Z,10.92
2023-04-13T13:14:00.331Z,11.04
2023-04-13T13:19:00.333Z,10.89
2023-04-13T13:24:00.325Z,10.81
2023-04-13T13:29:00.617Z,10.62
2023-04-13T13:34:00.302Z,10.22
2023-04-13T13:39:02.059Z,10.05
2023-04-13T13:44:00.285Z,10.15
2023-04-13T13:49:00.471Z,10.44
2023-04-13T13:54:00.301Z,10.62
2023-04-13T13:59:00.425Z,10.6
2023-04-13T14:04:00.356Z,10.48
2023-04-13T14:09:00.371Z,10.19
2023-04-13T14:14:07.984Z,10.07
2023-04-13T14:19:00.393Z,10.3
2023-04-13T14:24:00.299Z,10.62
2023-04-13T14:29:00.439Z,10.77
2023-04-13T14:34:00.702Z,10.91
2023-04-13T14:39:00.567Z,10.89
2023-04-13T14:44:00.233Z,10.7
2023-04-13T14:49:00.577Z,10.73
2023-04-13T14:54:00.226Z,10.7
2023-04-13T14:59:00.372Z,10.48
2023-04-13T15:04:00.346Z,10.53
2023-04-13T15:09:00.558Z,10.12
2023-04-13T15:14:00.235Z,10.25
2023-04-13T15:19:00.459Z,10.07
2023-04-13T15:24:00.196Z,9.79
2023-04-13T15:29:00.324Z,9.77
2023-04-13T15:34:00.451Z,9.77
2023-04-13T15:39:00.346Z,9.77
2023-04-13T15:44:00.200Z,9.77
2023-04-13T15:49:00.385Z,9.64
2023-04-13T15:54:00.277Z,9.47
2023-04-13T15:59:00.315Z,9.4
2023-04-13T16:04:00.324Z,9.28
2023-04-13T16:09:00.286Z,9.07
2023-04-13T16:14:00.206Z,8.98
2023-04-13T16:19:00.279Z,8.87
2023-04-13T16:24:00.199Z,8.86
2023-04-13T16:29:00.298Z,8.77
2023-04-13T16:34:00.157Z,8.67
2023-04-13T16:39:00.289Z,8.55
2023-04-13T16:44:00.125Z,8.47
2023-04-13T16:49:00.287Z,8.3
2023-04-13T16:54:00.128Z,8.15
2023-04-13T16:59:00.278Z,8.07
2023-04-13T17:04:00.093Z,7.93
2023-04-13T17:09:00.179Z,7.92
2023-04-13T17:14:00.082Z,7.75
2023-04-13T17:19:00.186Z,7.68
2023-04-13T17:24:00.079Z,7.56
2023-04-13T17:29:00.199Z,7.52
2023-04-13T17:34:00.069Z,7.33
2023-04-13T17:39:00.206Z,7.21
2023-04-13T17:44:00.035Z,7.08
2023-04-13T17:49:00.150Z,7
2023-04-13T17:54:00.044Z,6.95
2023-04-13T17:59:00.180Z,6.9
2023-04-13T18:04:00.088Z,6.8
2023-04-13T18:09:00.137Z,6.75
2023-04-13T18:14:00.241Z,6.68
2023-04-13T18:19:01.564Z,6.62
2023-04-13T18:24:00.190Z,6.55
2023-04-13T18:29:00.017Z,6.49
2023-04-13T18:34:00.159Z,6.42
2023-04-13T18:39:00.037Z,6.42
2023-04-13T18:44:00.202Z,6.35
2023-04-13T18:49:00.009Z,6.31
2023-04-13T18:54:00.157Z,6.32
2023-04-13T18:59:00.004Z,6.24
2023-04-13T19:04:00.299Z,6.17
2023-04-13T19:08:59.977Z,6.08
2023-04-13T19:14:00.131Z,6.05
2023-04-13T19:19:00.005Z,6
2023-04-13T19:24:00.044Z,5.94
2023-04-13T19:28:59.967Z,5.88
2023-04-13T19:34:00.146Z,5.87
2023-04-13T19:38:59.947Z,5.85
2023-04-13T19:44:00.120Z,5.84
2023-04-13T19:48:59.956Z,5.82
2023-04-13T19:54:00.158Z,5.79
2023-04-13T19:58:59.942Z,5.77
2023-04-13T20:04:00.244Z,5.76
2023-04-13T20:08:59.932Z,5.77
2023-04-13T20:14:00.073Z,5.74
2023-04-13T20:18:59.930Z,5.72
2023-04-13T20:24:00.052Z,5.69
2023-04-13T20:28:59.926Z,5.66
2023-04-13T20:34:00.251Z,5.59
2023-04-13T20:38:59.929Z,5.58
2023-04-13T20:44:00.253Z,5.58
2023-04-13T20:48:59.900Z,5.53
2023-04-13T20:53:59.990Z,5.48
2023-04-13T20:58:59.891Z,5.45
2023-04-13T21:04:00.078Z,5.43
2023-04-13T21:08:59.932Z,5.4
2023-04-13T21:14:00.056Z,5.38
2023-04-13T21:18:59.874Z,5.37
2023-04-13T21:23:59.976Z,5.33
2023-04-13T21:28:59.871Z,5.31
2023-04-13T21:34:00.080Z,5.28
2023-04-13T21:39:00.171Z,5.22
2023-04-13T21:43:59.858Z,5.19
2023-04-13T21:49:00.055Z,5.13
2023-04-13T21:53:59.872Z,5.11
2023-04-13T21:58:59.944Z,5.07
2023-04-13T22:03:59.989Z,4.99
2023-04-13T22:09:00.014Z,4.94
2023-04-13T22:13:59.843Z,4.87
2023-04-13T22:18:59.946Z,4.82
2023-04-13T22:23:59.850Z,4.76
2023-04-13T22:29:00.016Z,4.74
2023-04-13T22:33:59.831Z,4.67
2023-04-13T22:38:59.986Z,4.6
2023-04-13T22:43:59.815Z,4.57
2023-04-13T22:49:00.040Z,4.54
2023-04-13T22:53:59.802Z,4.48
2023-04-13T22:59:00.115Z,4.43
2023-04-13T23:03:59.902Z,4.38
2023-04-13T23:09:00.056Z,4.36
2023-04-13T23:13:59.809Z,4.24
2023-04-13T23:18:59.976Z,4.2
2023-04-13T23:23:59.792Z,4.2
2023-04-13T23:28:59.947Z,4.2
2023-04-13T23:33:59.786Z,4.19
2023-04-13T23:38:59.925Z,4.19
2023-04-13T23:43:59.771Z,4.19
2023-04-13T23:48:59.872Z,4.19
2023-04-13T23:53:59.766Z,4.19
2023-04-13T23:58:59.931Z,4.19
